Time;durP1;ratioP1;P1;durP2;ratioP2;P2;SDS_P1;SDS_P2;PMS_P1;PMS_P2;Temp;Humidity;BMP_temperature;BMP_pressure;BME280_temperature;BME280_humidity;BME280_pressure;Samples;Min_cycle;Max_cycle;Signal;HPM_P1;HPM_P2
2021/11/05 00:00:20;;;;;;;4.50;4.15;;;8.60;99.90;;;;;;5093217;28;20210;-74
2021/11/05 00:02:50;;;;;;;4.50;4.10;;;8.60;99.90;;;;;;5092709;28;20226;-73
2021/11/05 00:05:17;;;;;;;4.45;4.05;;;8.50;99.90;;;;;;5093190;28;20212;-74
2021/11/05 00:07:45;;;;;;;3.75;3.45;;;8.60;99.90;;;;;;5093037;28;20203;-73
2021/11/05 00:10:12;;;;;;;3.92;3.63;;;8.60;99.90;;;;;;5093178;28;20198;-74
2021/11/05 00:12:39;;;;;;;4.32;3.95;;;8.70;99.90;;;;;;5094112;28;20407;-73
2021/11/05 00:15:07;;;;;;;4.28;3.88;;;8.70;99.90;;;;;;5096544;28;20676;-74
2021/11/05 00:17:34;;;;;;;6.13;4.53;;;8.70;99.90;;;;;;5096904;28;20202;-74
2021/11/05 00:20:00;;;;;;;4.88;4.43;;;8.70;99.90;;;;;;5096725;28;20202;-74
2021/11/05 00:22:27;;;;;;;4.40;4.00;;;8.70;99.90;;;;;;5096520;28;20230;-74
2021/11/05 00:24:56;;;;;;;4.85;4.45;;;8.70;99.90;;;;;;5096781;28;20593;-74
2021/11/05 00:27:22;;;;;;;4.32;3.92;;;8.70;99.90;;;;;;5096518;28;20289;-74
2021/11/05 00:29:49;;;;;;;4.50;4.10;;;8.70;99.90;;;;;;5096522;28;20206;-74
2021/11/05 00:32:16;;;;;;;4.50;4.10;;;8.70;99.90;;;;;;5096363;28;20224;-74
2021/11/05 00:34:43;;;;;;;5.10;4.50;;;8.80;99.90;;;;;;5096329;28;20294;-74
2021/11/05 00:37:10;;;;;;;4.47;4.05;;;8.80;99.90;;;;;;5096448;28;20206;-74
2021/11/05 00:39:36;;;;;;;5.57;4.47;;;8.80;99.90;;;;;;5096149;28;20300;-74
2021/11/05 00:42:05;;;;;;;4.80;4.40;;;8.80;99.90;;;;;;5096157;28;20668;-74
2021/11/05 00:44:32;;;;;;;4.20;3.83;;;8.80;99.90;;;;;;5096212;28;20206;-74
2021/11/05 00:46:59;;;;;;;4.65;4.25;;;8.80;99.90;;;;;;5096056;28;20214;-74
2021/11/05 00:49:26;;;;;;;4.90;4.50;;;8.80;99.90;;;;;;5096041;28;20199;-74
2021/11/05 00:51:53;;;;;;;6.25;4.45;;;8.80;99.90;;;;;;5095753;28;20267;-73
2021/11/05 00:54:20;;;;;;;5.13;4.47;;;8.80;99.90;;;;;;5096175;28;20285;-74
2021/11/05 00:56:46;;;;;;;5.05;4.65;;;8.70;99.90;;;;;;5096046;28;20597;-74
2021/11/05 00:59:15;;;;;;;4.80;4.25;;;8.80;99.90;;;;;;5096139;28;20293;-74
2021/11/05 01:01:42;;;;;;;4.50;4.10;;;8.80;99.90;;;;;;5095452;28;20313;-73
2021/11/05 01:04:08;;;;;;;5.43;4.18;;;8.90;99.90;;;;;;5095880;28;20271;-74
2021/11/05 01:06:35;;;;;;;4.53;4.10;;;8.80;99.90;;;;;;5095889;28;20242;-74
2021/11/05 01:09:03;;;;;;;4.80;4.40;;;8.90;99.90;;;;;;5095985;28;20698;-74
2021/11/05 01:11:30;;;;;;;4.60;4.20;;;8.90;99.90;;;;;;5095478;28;20297;-74
2021/11/05 01:13:57;;;;;;;6.32;4.50;;;8.90;99.90;;;;;;5095774;28;20198;-74
2021/11/05 01:16:25;;;;;;;5.35;4.80;;;8.90;99.90;;;;;;5095672;28;20244;-74
2021/11/05 01:18:52;;;;;;;4.40;4.00;;;8.90;99.90;;;;;;5095591;28;20206;-74
2021/11/05 01:21:20;;;;;;;4.93;4.43;;;8.90;99.90;;;;;;5095346;28;20293;-74
2021/11/05 01:23:47;;;;;;;5.13;4.50;;;8.90;99.90;;;;;;5094682;28;20226;-74
2021/11/05 01:26:13;;;;;;;5.05;4.55;;;8.90;99.90;;;;;;5095503;28;20224;-74
2021/11/05 01:28:40;;;;;;;4.82;4.35;;;8.90;99.90;;;;;;5095450;28;20202;-74
2021/11/05 01:31:07;;;;;;;4.80;4.30;;;8.90;99.90;;;;;;5095186;28;20292;-74
2021/11/05 01:33:36;;;;;;;5.13;4.63;;;8.90;99.90;;;;;;5095301;28;20305;-74
2021/11/05 01:36:03;;;;;;;4.93;4.40;;;8.90;99.90;;;;;;5095216;28;20206;-75
2021/11/05 01:38:30;;;;;;;4.57;4.18;;;8.90;99.90;;;;;;5095195;28;20293;-74
2021/11/05 01:40:57;;;;;;;5.05;4.50;;;8.90;99.90;;;;;;5094944;28;20665;-74
2021/11/05 01:43:24;;;;;;;4.68;4.18;;;8.90;99.90;;;;;;5094915;28;20230;-74
2021/11/05 01:45:51;;;;;;;4.95;4.55;;;8.90;99.90;;;;;;5094960;28;20244;-75
2021/11/05 01:48:18;;;;;;;4.82;4.32;;;8.90;99.90;;;;;;5095044;28;20288;-74
2021/11/05 01:50:47;;;;;;;4.45;4.05;;;8.90;99.90;;;;;;5094982;28;20564;-74
2021/11/05 01:53:14;;;;;;;4.65;4.25;;;8.80;99.90;;;;;;5094427;28;20220;-73
2021/11/05 01:55:43;;;;;;;5.15;4.65;;;8.80;99.90;;;;;;5094921;28;20571;-74
2021/11/05 01:58:10;;;;;;;4.40;3.97;;;8.70;99.90;;;;;;5094829;28;20202;-74
2021/11/05 02:00:38;;;;;;;4.43;3.83;;;8.70;99.90;;;;;;5094851;28;20202;-74
2021/11/05 02:03:05;;;;;;;5.10;4.32;;;8.70;99.90;;;;;;5094241;28;20226;-73
2021/11/05 02:05:32;;;;;;;5.45;4.30;;;8.70;99.90;;;;;;5094768;28;20204;-74
2021/11/05 02:08:02;;;;;;;4.95;4.45;;;8.60;99.90;;;;;;5094419;28;20217;-74
2021/11/05 02:10:30;;;;;;;5.72;5.13;;;8.50;99.90;;;;;;5094486;28;20302;-74
2021/11/05 02:12:58;;;;;;;6.43;4.78;;;8.50;99.90;;;;;;5094435;28;20325;-74
2021/11/05 02:15:26;;;;;;;5.47;5.03;;;8.50;99.90;;;;;;5094542;28;20289;-74
2021/11/05 02:17:53;;;;;;;6.20;4.85;;;8.50;99.90;;;;;;5094688;28;20293;-74
2021/11/05 02:20:23;;;;;;;4.47;3.95;;;8.40;99.90;;;;;;5094348;28;20727;-74
2021/11/05 02:22:52;;;;;;;4.80;4.25;;;8.40;99.90;;;;;;5094137;28;20587;-74
2021/11/05 02:25:20;;;;;;;4.07;3.67;;;8.40;99.90;;;;;;5094228;28;20213;-74
2021/11/05 02:27:49;;;;;;;4.72;4.07;;;8.30;99.90;;;;;;5094354;28;20198;-74
2021/11/05 02:30:16;;;;;;;5.45;4.38;;;8.40;99.90;;;;;;5094286;28;20211;-74
2021/11/05 02:32:44;;;;;;;4.32;3.92;;;8.40;99.90;;;;;;5093833;28;20232;-73
2021/11/05 02:35:12;;;;;;;5.93;4.15;;;8.40;99.90;;;;;;5093869;28;20198;-74
2021/11/05 02:37:39;;;;;;;4.75;4.25;;;8.40;99.90;;;;;;5093664;28;20202;-74
2021/11/05 02:40:09;;;;;;;6.13;4.00;;;8.40;99.90;;;;;;5093935;28;20654;-74
2021/11/05 02:42:37;;;;;;;4.63;4.20;;;8.50;99.90;;;;;;5093629;28;20228;-74
2021/11/05 02:45:04;;;;;;;4.50;4.10;;;8.40;99.90;;;;;;5094029;28;20202;-74
2021/11/05 02:47:31;;;;;;;6.35;4.70;;;8.30;99.90;;;;;;5094408;28;20202;-74
2021/11/05 02:50:05;;;;;;;4.70;4.20;;;8.30;99.90;;;;;;5093847;28;20296;-74
2021/11/05 02:52:33;;;;;;;5.18;4.63;;;8.30;99.90;;;;;;5093746;28;20226;-74
2021/11/05 02:55:00;;;;;;;5.25;4.50;;;8.30;99.90;;;;;;5093654;28;20202;-74
2021/11/05 02:57:29;;;;;;;4.78;4.28;;;8.30;99.90;;;;;;5093793;28;20240;-74
2021/11/05 02:59:56;;;;;;;5.80;5.20;;;8.30;99.90;;;;;;5093895;28;20202;-74
2021/11/05 03:02:23;;;;;;;5.32;4.82;;;8.30;99.90;;;;;;5093326;28;20731;-74
2021/11/05 03:04:50;;;;;;;5.20;4.70;;;8.40;99.90;;;;;;5093518;28;20303;-74
2021/11/05 03:07:17;;;;;;;5.97;4.75;;;8.40;99.90;;;;;;5093757;28;20198;-74
2021/11/05 03:09:44;;;;;;;5.50;4.93;;;8.40;99.90;;;;;;5093739;28;20288;-74
2021/11/05 03:12:12;;;;;;;4.95;4.40;;;8.40;99.90;;;;;;5093331;28;20222;-73
2021/11/05 03:14:41;;;;;;;4.90;4.45;;;8.40;99.90;;;;;;5093402;28;20687;-74
2021/11/05 03:17:09;;;;;;;5.13;4.60;;;8.40;99.90;;;;;;5093662;28;20204;-74
2021/11/05 03:19:37;;;;;;;5.65;5.13;;;8.40;99.90;;;;;;5093647;28;20202;-74
2021/11/05 03:22:04;;;;;;;5.63;4.60;;;8.40;99.90;;;;;;5093258;28;20222;-75
2021/11/05 03:24:31;;;;;;;4.93;4.43;;;8.40;99.90;;;;;;5093545;28;20253;-74
2021/11/05 03:26:58;;;;;;;5.05;4.50;;;8.40;99.90;;;;;;5093528;28;20643;-74
2021/11/05 03:29:25;;;;;;;5.40;4.60;;;8.40;99.90;;;;;;5093545;28;20623;-74
2021/11/05 03:31:53;;;;;;;5.85;4.80;;;8.20;99.90;;;;;;5093476;28;20309;-74
2021/11/05 03:34:20;;;;;;;5.20;4.70;;;8.20;99.90;;;;;;5093253;28;20198;-74
2021/11/05 03:36:47;;;;;;;6.55;5.20;;;8.00;99.90;;;;;;5093572;28;20597;-74
2021/11/05 03:39:14;;;;;;;6.88;5.15;;;7.90;99.90;;;;;;5093240;28;20220;-74
2021/11/05 03:41:41;;;;;;;6.65;5.13;;;7.80;99.90;;;;;;5093635;28;20204;-73
2021/11/05 03:44:08;;;;;;;5.68;5.13;;;7.70;99.90;;;;;;5093410;28;20678;-74
2021/11/05 03:46:35;;;;;;;5.13;4.55;;;7.70;99.90;;;;;;5093240;28;20292;-74
2021/11/05 03:49:04;;;;;;;5.05;4.55;;;7.70;99.90;;;;;;5097174;28;20204;-74
2021/11/05 03:51:31;;;;;;;6.15;5.20;;;7.70;99.90;;;;;;5097050;28;20198;-74
2021/11/05 03:53:58;;;;;;;5.15;4.65;;;7.80;99.90;;;;;;5097017;28;20683;-74
2021/11/05 03:56:26;;;;;;;5.43;4.78;;;7.80;99.90;;;;;;5097241;28;20292;-73
2021/11/05 03:58:52;;;;;;;5.57;4.80;;;7.80;99.90;;;;;;5097192;28;20209;-74
2021/11/05 04:01:20;;;;;;;5.10;4.60;;;7.90;99.90;;;;;;5096942;28;20233;-74
2021/11/05 04:03:48;;;;;;;5.22;4.50;;;7.90;99.90;;;;;;5096686;28;20267;-73
2021/11/05 04:06:17;;;;;;;5.05;4.32;;;8.00;99.90;;;;;;5097022;28;20234;-74
2021/11/05 04:08:44;;;;;;;5.30;4.80;;;8.10;99.90;;;;;;5096967;28;20545;-74
2021/11/05 04:11:11;;;;;;;4.68;4.28;;;8.20;99.90;;;;;;5096862;28;20206;-74
2021/11/05 04:13:38;;;;;;;4.78;4.20;;;8.10;99.90;;;;;;5096888;28;20304;-74
2021/11/05 04:16:05;;;;;;;3.92;3.55;;;8.20;99.90;;;;;;5096778;28;20318;-74
2021/11/05 04:18:32;;;;;;;4.72;3.95;;;8.30;99.90;;;;;;5096745;28;20293;-74
2021/11/05 04:20:59;;;;;;;4.40;4.00;;;8.40;99.90;;;;;;5096903;28;20293;-75
2021/11/05 04:23:27;;;;;;;4.15;3.75;;;8.50;99.90;;;;;;5097344;28;20640;-74
2021/11/05 04:25:54;;;;;;;4.50;4.10;;;8.50;99.90;;;;;;5096474;28;20294;-74
2021/11/05 04:28:22;;;;;;;4.53;4.13;;;8.40;99.90;;;;;;5096890;28;20202;-74
2021/11/05 04:30:49;;;;;;;4.35;3.95;;;8.50;99.90;;;;;;5096454;28;20656;-74
2021/11/05 04:33:16;;;;;;;3.85;3.53;;;8.50;99.90;;;;;;5096279;28;20816;-74
2021/11/05 04:35:43;;;;;;;4.25;3.60;;;8.50;99.90;;;;;;5096244;28;20292;-74
2021/11/05 04:38:10;;;;;;;3.83;3.47;;;8.50;99.90;;;;;;5096439;28;20208;-74
2021/11/05 04:40:39;;;;;;;5.63;4.05;;;8.30;99.90;;;;;;5096193;28;20297;-74
2021/11/05 04:43:06;;;;;;;6.80;3.70;;;8.40;99.90;;;;;;5096171;28;20232;-74
2021/11/05 04:45:33;;;;;;;4.35;3.95;;;8.40;99.90;;;;;;5096237;28;20321;-74
2021/11/05 04:48:01;;;;;;;4.18;3.78;;;8.40;99.90;;;;;;5096208;28;20224;-74
2021/11/05 04:50:27;;;;;;;4.10;3.55;;;8.40;99.90;;;;;;5096231;28;20560;-74
2021/11/05 04:52:54;;;;;;;4.57;3.90;;;8.40;99.90;;;;;;5095991;28;20225;-74
2021/11/05 04:55:22;;;;;;;4.80;3.60;;;8.50;99.90;;;;;;5096111;28;20205;-74
2021/11/05 04:57:51;;;;;;;4.78;4.15;;;8.50;99.90;;;;;;5096035;28;20253;-74
2021/11/05 05:00:20;;;;;;;4.28;3.88;;;8.50;99.90;;;;;;5094900;28;20202;-74
2021/11/05 05:02:47;;;;;;;3.80;3.40;;;8.40;99.90;;;;;;5095504;28;20583;-74
2021/11/05 05:05:14;;;;;;;3.30;3.00;;;8.50;99.90;;;;;;5095855;28;20332;-75
2021/11/05 05:07:42;;;;;;;3.42;3.13;;;8.60;99.90;;;;;;5095722;28;20652;-74
2021/11/05 05:10:10;;;;;;;4.10;3.70;;;8.50;99.90;;;;;;5095678;28;20201;-74
2021/11/05 05:12:39;;;;;;;8.43;3.78;;;8.60;99.90;;;;;;5095375;28;20226;-74
2021/11/05 05:15:10;;;;;;;3.50;3.20;;;8.60;99.90;;;;;;5095745;28;20202;-74
2021/11/05 05:17:37;;;;;;;3.50;3.20;;;8.60;99.90;;;;;;5095733;28;20202;-75
2021/11/05 05:20:08;;;;;;;3.90;3.42;;;8.50;99.90;;;;;;5095899;28;20297;-75
2021/11/05 05:22:35;;;;;;;3.60;3.30;;;8.50;99.90;;;;;;5095257;28;20230;-74
2021/11/05 05:25:01;;;;;;;3.25;2.95;;;8.50;99.90;;;;;;5095748;28;20225;-74
2021/11/05 05:27:28;;;;;;;4.55;3.35;;;8.50;99.90;;;;;;5095445;28;20574;-74
2021/11/05 05:29:56;;;;;;;3.40;2.88;;;8.40;99.90;;;;;;5095887;28;20208;-74
2021/11/05 05:32:25;;;;;;;3.00;2.70;;;8.40;99.90;;;;;;5095179;28;20226;-74
2021/11/05 05:34:52;;;;;;;3.22;2.92;;;8.40;99.90;;;;;;5095321;28;20303;-75
2021/11/05 05:37:19;;;;;;;3.22;2.92;;;8.50;99.90;;;;;;5095310;28;20202;-75
2021/11/05 05:39:46;;;;;;;2.70;2.50;;;8.40;99.90;;;;;;5095100;28;20220;-75
2021/11/05 05:42:12;;;;;;;3.15;2.85;;;8.50;99.90;;;;;;5094814;28;20321;-74
2021/11/05 05:44:39;;;;;;;3.42;3.13;;;8.50;99.90;;;;;;5095018;28;20313;-74
2021/11/05 05:47:07;;;;;;;3.53;3.22;;;8.50;99.90;;;;;;5095100;28;20302;-74
2021/11/05 05:49:35;;;;;;;4.10;3.40;;;8.50;99.90;;;;;;5095088;28;20202;-75
2021/11/05 05:52:02;;;;;;;4.47;3.80;;;8.50;99.90;;;;;;5094558;28;20722;-74
2021/11/05 05:54:29;;;;;;;3.00;2.70;;;8.60;99.90;;;;;;5094978;28;20572;-74
2021/11/05 05:56:57;;;;;;;4.20;3.40;;;8.70;99.90;;;;;;5094591;28;20204;-75
2021/11/05 05:59:24;;;;;;;8.50;6.72;;;8.60;99.90;;;;;;5094591;28;20198;-75
2021/11/05 06:01:51;;;;;;;4.65;3.35;;;8.60;99.90;;;;;;5094328;28;20708;-74
2021/11/05 06:04:19;;;;;;;4.15;3.08;;;8.60;99.90;;;;;;5094985;28;20221;-75
2021/11/05 06:06:47;;;;;;;3.15;2.85;;;8.50;99.90;;;;;;5094724;28;20300;-75
2021/11/05 06:09:14;;;;;;;5.65;3.50;;;8.40;99.90;;;;;;5094660;28;20293;-74
2021/11/05 06:11:41;;;;;;;5.13;3.20;;;8.30;99.90;;;;;;5094201;28;20228;-74
2021/11/05 06:14:08;;;;;;;3.47;3.13;;;8.30;99.90;;;;;;5094714;28;20237;-75
2021/11/05 06:16:35;;;;;;;3.67;3.10;;;8.30;99.90;;;;;;5094284;28;20617;-74
2021/11/05 06:19:01;;;;;;;3.60;3.28;;;8.30;99.90;;;;;;5094427;28;20202;-75
2021/11/05 06:21:28;;;;;;;2.65;2.45;;;8.30;99.90;;;;;;5094135;28;20698;-74
2021/11/05 06:23:56;;;;;;;3.42;3.13;;;8.30;99.90;;;;;;5094485;28;20293;-75
2021/11/05 06:26:23;;;;;;;3.40;3.10;;;8.30;99.90;;;;;;5094390;28;20213;-74
2021/11/05 06:28:50;;;;;;;3.63;3.10;;;8.30;99.90;;;;;;5094341;28;20201;-75
2021/11/05 06:31:18;;;;;;;4.43;3.45;;;8.30;99.90;;;;;;5094104;28;20204;-74
2021/11/05 06:33:45;;;;;;;3.97;3.58;;;8.40;99.90;;;;;;5094480;28;20226;-74
2021/11/05 06:36:13;;;;;;;3.70;3.40;;;8.30;99.90;;;;;;5094122;28;20202;-75
2021/11/05 06:38:39;;;;;;;3.78;3.40;;;8.30;99.90;;;;;;5094296;28;20206;-74
2021/11/05 06:41:08;;;;;;;3.85;3.55;;;8.30;99.90;;;;;;5093694;28;20209;-73
2021/11/05 06:43:35;;;;;;;4.40;4.00;;;8.40;99.90;;;;;;5094094;28;20316;-75
2021/11/05 06:46:01;;;;;;;3.95;3.65;;;8.50;99.90;;;;;;5093979;28;20233;-75
2021/11/05 06:48:28;;;;;;;4.20;3.65;;;8.60;99.90;;;;;;5094021;28;20563;-75
2021/11/05 06:50:56;;;;;;;4.55;3.72;;;8.60;99.90;;;;;;5093869;28;20213;-74
2021/11/05 06:53:24;;;;;;;4.50;3.55;;;8.60;99.90;;;;;;5093790;28;20624;-74
2021/11/05 06:55:50;;;;;;;4.10;3.70;;;8.60;99.90;;;;;;5093920;28;20197;-74
2021/11/05 06:58:19;;;;;;;5.57;4.50;;;8.60;99.90;;;;;;5093897;28;20237;-75
2021/11/05 07:00:48;;;;;;;5.28;4.65;;;8.60;99.90;;;;;;5093856;28;20290;-74
2021/11/05 07:03:15;;;;;;;5.15;4.40;;;8.60;99.90;;;;;;5093572;28;20253;-74
2021/11/05 07:05:42;;;;;;;4.75;4.05;;;8.60;99.90;;;;;;5093703;28;20233;-75
2021/11/05 07:08:09;;;;;;;6.50;5.10;;;8.60;99.90;;;;;;5094131;28;20292;-74
2021/11/05 07:10:36;;;;;;;4.35;3.95;;;8.70;99.90;;;;;;5093531;28;20660;-75
2021/11/05 07:13:03;;;;;;;4.32;3.92;;;8.70;99.90;;;;;;5093525;28;20649;-75
2021/11/05 07:15:31;;;;;;;6.60;3.80;;;8.80;99.90;;;;;;5093594;28;20208;-75
2021/11/05 07:18:00;;;;;;;4.32;3.88;;;8.80;99.90;;;;;;5093568;28;20209;-75
2021/11/05 07:20:27;;;;;;;4.18;3.78;;;8.80;99.90;;;;;;5093937;28;20213;-75
2021/11/05 07:22:54;;;;;;;4.55;4.03;;;8.80;99.90;;;;;;5095518;28;20233;-74
2021/11/05 07:25:21;;;;;;;5.43;4.93;;;8.80;99.90;;;;;;5097777;28;20257;-75
2021/11/05 07:27:48;;;;;;;3.95;3.58;;;8.90;99.90;;;;;;5097779;28;20293;-75
2021/11/05 07:30:15;;;;;;;3.90;3.60;;;8.90;99.90;;;;;;5097732;28;20230;-75
2021/11/05 07:32:45;;;;;;;5.60;4.30;;;8.80;99.90;;;;;;5097183;28;20222;-75
2021/11/05 07:35:13;;;;;;;4.75;4.25;;;8.70;99.90;;;;;;5097731;28;20239;-75
2021/11/05 07:37:40;;;;;;;5.30;4.40;;;8.60;99.90;;;;;;5097444;28;20698;-75
2021/11/05 07:40:09;;;;;;;5.72;4.32;;;8.40;99.90;;;;;;5097565;28;20214;-75
2021/11/05 07:42:36;;;;;;;5.68;4.60;;;8.40;99.90;;;;;;5097093;28;20221;-74
2021/11/05 07:45:04;;;;;;;4.75;4.25;;;8.30;99.90;;;;;;5097503;28;20226;-74
2021/11/05 07:47:31;;;;;;;5.68;4.70;;;8.20;99.90;;;;;;5097894;28;20198;-75
2021/11/05 07:50:00;;;;;;;5.00;4.07;;;8.10;99.90;;;;;;5097390;28;20228;-75
2021/11/05 07:52:27;;;;;;;5.82;4.35;;;8.20;99.90;;;;;;5097021;28;20333;-75
2021/11/05 07:54:54;;;;;;;4.25;3.85;;;8.30;99.90;;;;;;5097360;28;20198;-74
2021/11/05 07:57:21;;;;;;;5.40;4.90;;;8.40;99.90;;;;;;5097262;28;20215;-75
2021/11/05 07:59:48;;;;;;;5.50;4.90;;;8.50;99.90;;;;;;5097123;28;20267;-75
2021/11/05 08:02:15;;;;;;;5.00;4.53;;;8.70;99.90;;;;;;5096971;28;20226;-75
2021/11/05 08:04:42;;;;;;;6.20;4.95;;;8.80;99.90;;;;;;5097240;28;20317;-75
2021/11/05 08:07:11;;;;;;;5.35;4.55;;;8.90;99.90;;;;;;5096983;28;20296;-75
2021/11/05 08:09:37;;;;;;;7.70;4.65;;;8.90;99.90;;;;;;5097145;28;20293;-75
2021/11/05 08:12:05;;;;;;;5.95;5.10;;;9.00;99.90;;;;;;5096620;28;20312;-74
2021/11/05 08:14:32;;;;;;;5.30;4.60;;;9.10;99.90;;;;;;5097391;28;20257;-75
2021/11/05 08:16:58;;;;;;;5.45;4.75;;;9.20;99.90;;;;;;5096650;28;20234;-75
2021/11/05 08:19:25;;;;;;;5.28;4.75;;;9.20;99.90;;;;;;5096686;28;20289;-75
2021/11/05 08:21:52;;;;;;;8.75;5.80;;;9.10;99.90;;;;;;5096677;28;20303;-74
2021/11/05 08:24:20;;;;;;;7.00;6.13;;;8.90;99.90;;;;;;5097000;28;20292;-75
2021/11/05 08:26:48;;;;;;;10.43;6.97;;;8.70;99.90;;;;;;5096637;28;20202;-75
2021/11/05 08:29:15;;;;;;;11.18;8.25;;;8.60;99.90;;;;;;5096549;28;20251;-75
2021/11/05 08:31:42;;;;;;;9.40;7.60;;;8.70;99.90;;;;;;5096269;28;20583;-75
2021/11/05 08:34:09;;;;;;;8.63;7.07;;;8.80;99.90;;;;;;5096585;28;20198;-75
2021/11/05 08:36:36;;;;;;;10.68;8.35;;;8.90;99.90;;;;;;5096403;28;20204;-75
2021/11/05 08:39:04;;;;;;;8.00;6.90;;;9.00;99.90;;;;;;5096300;28;20202;-75
2021/11/05 08:41:33;;;;;;;8.18;6.85;;;9.10;99.90;;;;;;5096195;28;20285;-75
2021/11/05 08:44:00;;;;;;;10.60;7.35;;;9.00;99.90;;;;;;5096130;28;20209;-75
2021/11/05 08:46:29;;;;;;;7.60;6.90;;;9.00;99.90;;;;;;5096261;28;20253;-75
2021/11/05 08:48:57;;;;;;;6.90;6.05;;;9.00;99.90;;;;;;5096269;28;20198;-75
2021/11/05 08:51:26;;;;;;;9.05;6.80;;;9.00;99.90;;;;;;5095991;28;20206;-75
2021/11/05 08:53:53;;;;;;;8.88;6.40;;;8.90;99.90;;;;;;5095896;28;20234;-75
2021/11/05 08:56:20;;;;;;;7.82;6.50;;;9.00;99.90;;;;;;5096242;28;20193;-75
2021/11/05 08:58:48;;;;;;;7.38;6.10;;;9.10;99.90;;;;;;5096507;28;20208;-75
2021/11/05 09:01:16;;;;;;;7.57;6.68;;;9.30;99.90;;;;;;5095871;28;20212;-75
2021/11/05 09:03:43;;;;;;;9.68;5.90;;;9.40;99.90;;;;;;5096587;28;20233;-75
2021/11/05 09:06:10;;;;;;;6.70;5.90;;;9.50;99.90;;;;;;5096099;28;20218;-75
2021/11/05 09:08:38;;;;;;;5.03;3.95;;;9.30;99.90;;;;;;5095865;28;20202;-75
2021/11/05 09:11:06;;;;;;;3.97;3.67;;;9.40;99.90;;;;;;5095453;28;20214;-75
2021/11/05 09:13:35;;;;;;;3.30;3.00;;;9.50;99.90;;;;;;5095823;28;20221;-75
2021/11/05 09:16:04;;;;;;;4.50;3.75;;;9.50;99.90;;;;;;5095749;28;20289;-75
2021/11/05 09:18:33;;;;;;;9.60;4.60;;;9.70;99.90;;;;;;5095711;28;20288;-75
2021/11/05 09:21:01;;;;;;;5.28;3.13;;;9.70;99.90;;;;;;5095407;28;20201;-73
2021/11/05 09:23:27;;;;;;;4.70;3.95;;;9.60;99.90;;;;;;5095275;28;20261;-75
2021/11/05 09:25:55;;;;;;;7.40;6.00;;;9.60;99.90;;;;;;5095692;28;20222;-75
2021/11/05 09:28:21;;;;;;;6.60;5.45;;;9.80;99.90;;;;;;5095537;28;20201;-75
2021/11/05 09:30:48;;;;;;;6.45;5.65;;;9.80;99.90;;;;;;5095432;28;20230;-75
2021/11/05 09:33:19;;;;;;;5.75;4.70;;;9.90;99.90;;;;;;5095184;28;20218;-74
2021/11/05 09:35:46;;;;;;;4.32;3.85;;;10.10;99.90;;;;;;5095148;28;20240;-75
2021/11/05 09:38:14;;;;;;;5.40;4.90;;;10.20;99.90;;;;;;5095263;28;20205;-75
2021/11/05 09:40:41;;;;;;;5.30;4.80;;;10.40;99.90;;;;;;5095038;28;20217;-75
2021/11/05 09:43:07;;;;;;;4.40;4.00;;;10.50;99.90;;;;;;5095041;28;20222;-75
2021/11/05 09:45:34;;;;;;;5.13;4.13;;;10.60;99.90;;;;;;5094559;28;20218;-76
2021/11/05 09:48:03;;;;;;;5.18;4.10;;;10.60;99.90;;;;;;5095053;28;20233;-74
2021/11/05 09:50:32;;;;;;;6.68;4.43;;;10.60;99.90;;;;;;5095021;28;20234;-75
2021/11/05 09:52:59;;;;;;;8.68;4.97;;;10.50;99.90;;;;;;5094878;28;20309;-75
2021/11/05 09:55:26;;;;;;;5.13;4.35;;;10.50;99.90;;;;;;5095009;28;20194;-74
2021/11/05 09:57:53;;;;;;;4.40;4.00;;;10.50;99.90;;;;;;5094927;28;20292;-75
2021/11/05 10:00:23;;;;;;;5.38;4.00;;;10.50;99.90;;;;;;5094872;28;20212;-75
2021/11/05 10:02:50;;;;;;;4.90;3.90;;;10.40;99.90;;;;;;5094386;28;20222;-75
2021/11/05 10:05:17;;;;;;;4.85;4.25;;;10.20;99.90;;;;;;5094701;28;20221;-75
2021/11/05 10:07:51;;;;;;;5.35;4.53;;;10.20;99.90;;;;;;5094759;28;20575;-75
2021/11/05 10:10:24;;;;;;;9.65;4.50;;;10.40;99.90;;;;;;5094616;28;20237;-75
2021/11/05 10:12:57;;;;;;;6.15;4.63;;;10.50;99.90;;;;;;5094339;28;20226;-74
2021/11/05 10:15:28;;;;;;;4.53;4.13;;;10.70;99.90;;;;;;5094450;28;20234;-74
2021/11/05 10:18:05;;;;;;;6.38;4.32;;;10.80;99.90;;;;;;5094591;28;20259;-75
2021/11/05 10:20:32;;;;;;;4.82;4.32;;;10.90;99.90;;;;;;5094561;28;20210;-75
2021/11/05 10:23:03;;;;;;;6.10;4.47;;;11.00;99.90;;;;;;5094241;28;20221;-75
2021/11/05 10:25:34;;;;;;;4.72;4.32;;;11.00;99.90;;;;;;5094419;28;20237;-75
2021/11/05 10:28:09;;;;;;;6.90;4.60;;;11.00;99.90;;;;;;5094408;28;20558;-75
2021/11/05 10:30:51;;;;;;;4.70;4.00;;;11.00;99.90;;;;;;5094348;28;20289;-75
2021/11/05 10:33:20;;;;;;;4.95;4.45;;;11.20;99.90;;;;;;5094219;28;20226;-75
2021/11/05 10:35:49;;;;;;;4.93;4.43;;;11.20;99.90;;;;;;5094193;28;20661;-75
2021/11/05 10:38:18;;;;;;;5.85;4.70;;;11.10;99.90;;;;;;5093931;28;20212;-75
2021/11/05 10:40:48;;;;;;;5.55;4.70;;;11.00;99.90;;;;;;5094031;28;20271;-75
2021/11/05 10:43:18;;;;;;;5.60;5.10;;;11.00;99.90;;;;;;5094265;28;20267;-75
2021/11/05 10:45:47;;;;;;;5.47;4.93;;;11.00;99.90;;;;;;5094390;28;20222;-75
2021/11/05 10:48:16;;;;;;;5.63;5.03;;;10.90;99.90;;;;;;5093955;28;20227;-74
2021/11/05 10:50:50;;;;;;;8.15;5.90;;;11.10;99.90;;;;;;5094063;28;20529;-75
2021/11/05 10:53:19;;;;;;;6.15;4.88;;;11.10;99.90;;;;;;5093986;28;20228;-75
2021/11/05 10:55:49;;;;;;;6.53;5.68;;;11.00;99.90;;;;;;5094041;28;20226;-74
2021/11/05 10:58:25;;;;;;;6.13;5.53;;;10.90;99.90;;;;;;5093025;28;20244;-75
2021/11/05 11:00:55;;;;;;;5.72;5.07;;;10.90;99.90;;;;;;5093868;28;20197;-75
2021/11/05 11:03:30;;;;;;;6.43;4.97;;;10.80;99.90;;;;;;5093777;28;20272;-75
2021/11/05 11:05:59;;;;;;;5.93;4.93;;;10.90;99.90;;;;;;5093711;28;20262;-75
2021/11/05 11:08:28;;;;;;;5.72;5.18;;;10.90;99.90;;;;;;5093909;28;20262;-74
2021/11/05 11:10:58;;;;;;;6.00;5.30;;;10.80;99.90;;;;;;5093734;28;20197;-74
2021/11/05 11:13:35;;;;;;;6.00;5.50;;;10.80;99.90;;;;;;5093700;28;20308;-74
2021/11/05 11:16:04;;;;;;;6.75;5.63;;;10.50;99.90;;;;;;5093837;28;20208;-74
2021/11/05 11:18:31;;;;;;;6.97;6.15;;;10.30;99.90;;;;;;5093538;28;20206;-74
2021/11/05 11:20:59;;;;;;;7.50;6.32;;;10.30;99.90;;;;;;5093677;28;20198;-75
2021/11/05 11:23:27;;;;;;;6.80;6.13;;;10.20;99.90;;;;;;5093647;28;20224;-74
2021/11/05 11:25:54;;;;;;;8.45;6.80;;;10.10;99.90;;;;;;5093412;28;20312;-74
2021/11/05 11:28:21;;;;;;;8.23;6.53;;;9.90;99.90;;;;;;5093867;28;20297;-74
2021/11/05 11:30:49;;;;;;;7.55;6.43;;;9.90;99.90;;;;;;5093831;28;20293;-74
2021/11/05 11:33:16;;;;;;;11.38;7.63;;;10.00;99.90;;;;;;5093339;28;20312;-74
2021/11/05 11:35:46;;;;;;;10.43;7.18;;;10.10;99.90;;;;;;5093552;28;20247;-74
2021/11/05 11:38:19;;;;;;;9.65;6.88;;;10.30;99.90;;;;;;5093454;28;20202;-74
2021/11/05 11:40:50;;;;;;;8.05;7.22;;;10.40;99.90;;;;;;5093186;28;20248;-75
2021/11/05 11:43:19;;;;;;;9.23;6.90;;;10.50;99.90;;;;;;5093356;28;20233;-75
2021/11/05 11:45:49;;;;;;;10.88;7.35;;;10.70;99.90;;;;;;5093351;28;20218;-75
2021/11/05 11:48:40;;;;;;;8.23;6.80;;;10.90;99.90;;;;;;5093501;28;20208;-74
2021/11/05 11:51:34;;;;;;;7.05;6.03;;;11.10;99.90;;;;;;5093264;28;20617;-74
2021/11/05 11:54:20;;;;;;;9.15;6.82;;;11.20;99.90;;;;;;5093470;28;20213;-75
2021/11/05 11:56:48;;;;;;;7.85;6.95;;;11.20;99.90;;;;;;5093148;28;20233;-75
2021/11/05 11:59:17;;;;;;;6.60;5.93;;;11.20;99.90;;;;;;5093253;28;20204;-75
2021/11/05 12:01:46;;;;;;;6.60;5.53;;;11.30;99.90;;;;;;5093417;28;20228;-74
2021/11/05 12:04:15;;;;;;;8.63;6.35;;;11.40;99.90;;;;;;5093320;28;20209;-75
2021/11/05 12:07:03;;;;;;;7.65;5.43;;;11.60;99.90;;;;;;5093028;28;20221;-75
2021/11/05 12:09:32;;;;;;;7.35;6.45;;;11.50;99.90;;;;;;5096092;28;20202;-75
2021/11/05 12:12:32;;;;;;;7.30;5.68;;;11.20;99.90;;;;;;5096805;28;20226;-74
2021/11/05 12:15:13;;;;;;;7.55;6.05;;;10.90;99.90;;;;;;5096727;28;20224;-75
2021/11/05 12:18:11;;;;;;;6.40;5.40;;;10.70;99.90;;;;;;5096889;28;20652;-75
2021/11/05 12:20:42;;;;;;;6.18;5.22;;;10.40;99.90;;;;;;5096866;28;20289;-75
2021/11/05 12:23:22;;;;;;;7.88;6.20;;;10.40;99.90;;;;;;5096637;28;20222;-74
2021/11/05 12:25:56;;;;;;;8.25;6.50;;;10.40;99.90;;;;;;5096724;28;20632;-75
2021/11/05 12:28:27;;;;;;;7.80;6.05;;;10.30;99.90;;;;;;5096599;28;20210;-74
2021/11/05 12:30:55;;;;;;;7.47;5.43;;;10.50;99.90;;;;;;5096688;28;20213;-75
2021/11/05 12:33:32;;;;;;;6.40;5.28;;;10.60;99.90;;;;;;5096578;28;20261;-74
2021/11/05 12:36:03;;;;;;;13.43;5.95;;;10.70;99.90;;;;;;5096586;28;20202;-75
2021/11/05 12:38:30;;;;;;;8.10;5.90;;;10.70;99.90;;;;;;5096533;28;20680;-74
2021/11/05 12:41:04;;;;;;;7.45;5.45;;;10.60;99.90;;;;;;5096273;28;20579;-75
2021/11/05 12:43:39;;;;;;;6.93;6.22;;;10.80;99.90;;;;;;5096419;28;20323;-74
2021/11/05 12:46:09;;;;;;;7.63;6.72;;;10.90;99.90;;;;;;5096284;28;20221;-75
2021/11/05 12:49:06;;;;;;;8.20;6.97;;;10.90;99.90;;;;;;5096127;28;20298;-74
2021/11/05 12:51:41;;;;;;;7.47;6.40;;;10.90;99.90;;;;;;5095943;28;20712;-74
2021/11/05 12:54:11;;;;;;;6.80;6.10;;;11.00;99.90;;;;;;5096291;28;20194;-75
2021/11/05 12:56:40;;;;;;;9.50;7.38;;;11.20;99.90;;;;;;5096058;28;20198;-75
2021/11/05 12:59:15;;;;;;;7.88;6.53;;;11.30;99.90;;;;;;5096007;28;20206;-74
2021/11/05 13:01:42;;;;;;;7.70;6.88;;;11.60;99.90;;;;;;5095738;28;20263;-74